sensor_id;sensor_type;location;lat;lon;timestamp;P1;durP1;ratioP1;P2;durP2;ratioP2
50519;SDS011;36468;44.098;3.078;2023-05-10T00:00:54;9.52;;;2.10;;
50519;SDS011;36468;44.098;3.078;2023-05-10T00:03:20;6.05;;;1.50;;
50519;SDS011;36468;44.098;3.078;2023-05-10T00:05:46;7.95;;;1.42;;
50519;SDS011;36468;44.098;3.078;2023-05-10T00:08:12;7.90;;;1.30;;
50519;SDS011;36468;44.098;3.078;2023-05-10T00:10:38;5.93;;;1.23;;
50519;SDS011;36468;44.098;3.078;2023-05-10T00:13:05;12.63;;;1.50;;
50519;SDS011;36468;44.098;3.078;2023-05-10T00:15:31;9.85;;;1.60;;
50519;SDS011;36468;44.098;3.078;2023-05-10T00:17:59;10.15;;;1.52;;
50519;SDS011;36468;44.098;3.078;2023-05-10T00:20:25;12.25;;;1.80;;
50519;SDS011;36468;44.098;3.078;2023-05-10T00:22:51;10.43;;;1.88;;
50519;SDS011;36468;44.098;3.078;2023-05-10T00:25:17;12.10;;;1.67;;
50519;SDS011;36468;44.098;3.078;2023-05-10T00:27:43;7.00;;;1.70;;
50519;SDS011;36468;44.098;3.078;2023-05-10T00:30:09;8.32;;;1.50;;
50519;SDS011;36468;44.098;3.078;2023-05-10T00:32:35;15.18;;;2.00;;
50519;SDS011;36468;44.098;3.078;2023-05-10T00:35:01;13.38;;;1.85;;
50519;SDS011;36468;44.098;3.078;2023-05-10T00:37:28;9.25;;;1.60;;
50519;SDS011;36468;44.098;3.078;2023-05-10T00:39:54;11.88;;;2.03;;
50519;SDS011;36468;44.098;3.078;2023-05-10T00:42:20;10.45;;;2.05;;
50519;SDS011;36468;44.098;3.078;2023-05-10T00:44:46;12.02;;;1.95;;
50519;SDS011;36468;44.098;3.078;2023-05-10T00:47:12;6.57;;;1.38;;
50519;SDS011;36468;44.098;3.078;2023-05-10T00:49:38;8.70;;;1.60;;
50519;SDS011;36468;44.098;3.078;2023-05-10T00:52:04;7.80;;;1.67;;
50519;SDS011;36468;44.098;3.078;2023-05-10T00:54:31;10.23;;;2.25;;
50519;SDS011;36468;44.098;3.078;2023-05-10T00:56:57;9.85;;;2.00;;
50519;SDS011;36468;44.098;3.078;2023-05-10T00:59:23;10.88;;;1.77;;
50519;SDS011;36468;44.098;3.078;2023-05-10T01:01:50;14.52;;;2.08;;
50519;SDS011;36468;44.098;3.078;2023-05-10T01:04:16;13.40;;;1.75;;
50519;SDS011;36468;44.098;3.078;2023-05-10T01:06:42;11.07;;;2.40;;
50519;SDS011;36468;44.098;3.078;2023-05-10T01:09:08;12.65;;;1.88;;
50519;SDS011;36468;44.098;3.078;2023-05-10T01:11:35;8.70;;;2.00;;
50519;SDS011;36468;44.098;3.078;2023-05-10T01:14:01;19.30;;;2.67;;
50519;SDS011;36468;44.098;3.078;2023-05-10T01:16:28;12.98;;;2.22;;
50519;SDS011;36468;44.098;3.078;2023-05-10T01:18:55;12.82;;;2.33;;
50519;SDS011;36468;44.098;3.078;2023-05-10T01:26:39;16.67;;;2.47;;
50519;SDS011;36468;44.098;3.078;2023-05-10T01:34:18;16.08;;;2.67;;
50519;SDS011;36468;44.098;3.078;2023-05-10T01:36:55;13.40;;;2.45;;
50519;SDS011;36468;44.098;3.078;2023-05-10T01:44:35;21.27;;;2.88;;
50519;SDS011;36468;44.098;3.078;2023-05-10T01:47:06;14.10;;;2.55;;
50519;SDS011;36468;44.098;3.078;2023-05-10T01:49:54;12.70;;;2.45;;
50519;SDS011;36468;44.098;3.078;2023-05-10T01:52:19;14.07;;;2.75;;
50519;SDS011;36468;44.098;3.078;2023-05-10T01:54:49;14.50;;;2.33;;
50519;SDS011;36468;44.098;3.078;2023-05-10T01:57:15;14.60;;;2.35;;
50519;SDS011;36468;44.098;3.078;2023-05-10T01:59:43;18.15;;;2.58;;
50519;SDS011;36468;44.098;3.078;2023-05-10T02:02:11;17.35;;;2.83;;
50519;SDS011;36468;44.098;3.078;2023-05-10T02:04:38;13.30;;;2.53;;
50519;SDS011;36468;44.098;3.078;2023-05-10T02:07:05;15.05;;;2.50;;
50519;SDS011;36468;44.098;3.078;2023-05-10T02:09:32;19.58;;;2.78;;
50519;SDS011;36468;44.098;3.078;2023-05-10T02:11:59;19.48;;;2.55;;
50519;SDS011;36468;44.098;3.078;2023-05-10T02:14:26;16.83;;;2.42;;
50519;SDS011;36468;44.098;3.078;2023-05-10T02:16:52;14.65;;;2.55;;
50519;SDS011;36468;44.098;3.078;2023-05-10T02:19:20;21.55;;;2.72;;
50519;SDS011;36468;44.098;3.078;2023-05-10T02:21:47;14.10;;;2.88;;
50519;SDS011;36468;44.098;3.078;2023-05-10T02:24:16;10.68;;;2.05;;
50519;SDS011;36468;44.098;3.078;2023-05-10T02:26:42;17.75;;;2.90;;
50519;SDS011;36468;44.098;3.078;2023-05-10T02:29:09;17.42;;;2.80;;
50519;SDS011;36468;44.098;3.078;2023-05-10T02:31:37;19.83;;;2.50;;
50519;SDS011;36468;44.098;3.078;2023-05-10T02:34:03;12.75;;;2.38;;
50519;SDS011;36468;44.098;3.078;2023-05-10T02:36:30;17.00;;;2.50;;
50519;SDS011;36468;44.098;3.078;2023-05-10T02:38:56;16.98;;;2.53;;
50519;SDS011;36468;44.098;3.078;2023-05-10T02:41:24;14.68;;;2.38;;
50519;SDS011;36468;44.098;3.078;2023-05-10T02:43:51;20.70;;;2.65;;
50519;SDS011;36468;44.098;3.078;2023-05-10T02:46:18;18.40;;;2.70;;
50519;SDS011;36468;44.098;3.078;2023-05-10T02:48:44;14.30;;;2.17;;
50519;SDS011;36468;44.098;3.078;2023-05-10T02:51:11;17.98;;;2.63;;
50519;SDS011;36468;44.098;3.078;2023-05-10T02:53:38;11.82;;;2.38;;
50519;SDS011;36468;44.098;3.078;2023-05-10T02:56:12;17.85;;;2.72;;
50519;SDS011;36468;44.098;3.078;2023-05-10T02:58:38;16.48;;;2.58;;
50519;SDS011;36468;44.098;3.078;2023-05-10T03:01:04;12.70;;;2.30;;
50519;SDS011;36468;44.098;3.078;2023-05-10T03:03:32;17.77;;;3.42;;
50519;SDS011;36468;44.098;3.078;2023-05-10T03:05:58;14.05;;;3.45;;
50519;SDS011;36468;44.098;3.078;2023-05-10T03:08:24;16.17;;;3.03;;
50519;SDS011;36468;44.098;3.078;2023-05-10T03:10:55;13.70;;;2.22;;
50519;SDS011;36468;44.098;3.078;2023-05-10T03:18:22;14.55;;;2.40;;
50519;SDS011;36468;44.098;3.078;2023-05-10T03:20:49;15.90;;;2.70;;
50519;SDS011;36468;44.098;3.078;2023-05-10T03:26:00;17.13;;;2.17;;
50519;SDS011;36468;44.098;3.078;2023-05-10T03:28:27;16.65;;;2.80;;
50519;SDS011;36468;44.098;3.078;2023-05-10T03:30:53;14.95;;;2.50;;
50519;SDS011;36468;44.098;3.078;2023-05-10T03:33:19;13.50;;;2.28;;
50519;SDS011;36468;44.098;3.078;2023-05-10T03:35:46;14.38;;;2.40;;
50519;SDS011;36468;44.098;3.078;2023-05-10T03:38:12;18.92;;;2.22;;
50519;SDS011;36468;44.098;3.078;2023-05-10T03:40:38;18.02;;;2.55;;
50519;SDS011;36468;44.098;3.078;2023-05-10T03:43:04;20.23;;;2.50;;
50519;SDS011;36468;44.098;3.078;2023-05-10T03:45:31;17.33;;;2.50;;
50519;SDS011;36468;44.098;3.078;2023-05-10T03:47:57;12.52;;;1.95;;
50519;SDS011;36468;44.098;3.078;2023-05-10T03:50:23;14.50;;;1.90;;
50519;SDS011;36468;44.098;3.078;2023-05-10T03:52:50;9.07;;;2.00;;
50519;SDS011;36468;44.098;3.078;2023-05-10T03:55:16;12.52;;;2.10;;
50519;SDS011;36468;44.098;3.078;2023-05-10T03:57:42;11.50;;;2.22;;
50519;SDS011;36468;44.098;3.078;2023-05-10T04:00:08;9.27;;;2.35;;
50519;SDS011;36468;44.098;3.078;2023-05-10T04:02:34;10.23;;;2.05;;
50519;SDS011;36468;44.098;3.078;2023-05-10T04:05:01;12.70;;;2.05;;
50519;SDS011;36468;44.098;3.078;2023-05-10T04:07:27;10.65;;;2.22;;
50519;SDS011;36468;44.098;3.078;2023-05-10T04:09:54;14.82;;;2.08;;
50519;SDS011;36468;44.098;3.078;2023-05-10T04:12:20;10.10;;;2.13;;
50519;SDS011;36468;44.098;3.078;2023-05-10T04:14:46;11.60;;;2.15;;
50519;SDS011;36468;44.098;3.078;2023-05-10T04:17:12;13.68;;;2.03;;
50519;SDS011;36468;44.098;3.078;2023-05-10T04:19:38;12.00;;;1.77;;
50519;SDS011;36468;44.098;3.078;2023-05-10T04:22:04;5.72;;;1.17;;
50519;SDS011;36468;44.098;3.078;2023-05-10T04:24:30;4.00;;;1.02;;
50519;SDS011;36468;44.098;3.078;2023-05-10T04:26:56;3.75;;;0.90;;
50519;SDS011;36468;44.098;3.078;2023-05-10T04:29:22;5.20;;;0.95;;
50519;SDS011;36468;44.098;3.078;2023-05-10T04:31:48;3.55;;;1.00;;
50519;SDS011;36468;44.098;3.078;2023-05-10T04:34:15;5.57;;;1.20;;
50519;SDS011;36468;44.098;3.078;2023-05-10T04:36:41;10.13;;;4.28;;
50519;SDS011;36468;44.098;3.078;2023-05-10T04:39:08;6.50;;;1.75;;
50519;SDS011;36468;44.098;3.078;2023-05-10T04:41:34;12.77;;;1.30;;
50519;SDS011;36468;44.098;3.078;2023-05-10T04:44:00;6.63;;;1.25;;
50519;SDS011;36468;44.098;3.078;2023-05-10T04:46:26;6.78;;;1.27;;
50519;SDS011;36468;44.098;3.078;2023-05-10T04:48:52;6.25;;;1.40;;
50519;SDS011;36468;44.098;3.078;2023-05-10T04:51:18;9.60;;;1.55;;
50519;SDS011;36468;44.098;3.078;2023-05-10T04:53:45;11.63;;;1.45;;
50519;SDS011;36468;44.098;3.078;2023-05-10T04:56:11;10.00;;;1.80;;
50519;SDS011;36468;44.098;3.078;2023-05-10T04:58:37;13.25;;;2.10;;
50519;SDS011;36468;44.098;3.078;2023-05-10T05:01:06;9.90;;;1.92;;
50519;SDS011;36468;44.098;3.078;2023-05-10T05:03:33;11.27;;;2.03;;
50519;SDS011;36468;44.098;3.078;2023-05-10T05:05:59;10.10;;;2.10;;
50519;SDS011;36468;44.098;3.078;2023-05-10T05:08:25;15.25;;;3.83;;
50519;SDS011;36468;44.098;3.078;2023-05-10T05:10:51;12.05;;;2.17;;
50519;SDS011;36468;44.098;3.078;2023-05-10T05:13:18;15.45;;;2.20;;
50519;SDS011;36468;44.098;3.078;2023-05-10T05:15:44;11.20;;;1.73;;
50519;SDS011;36468;44.098;3.078;2023-05-10T05:18:10;10.32;;;1.80;;
50519;SDS011;36468;44.098;3.078;2023-05-10T05:20:36;9.00;;;1.80;;
50519;SDS011;36468;44.098;3.078;2023-05-10T05:23:02;11.95;;;1.52;;
50519;SDS011;36468;44.098;3.078;2023-05-10T05:25:28;10.73;;;2.03;;
50519;SDS011;36468;44.098;3.078;2023-05-10T05:27:54;12.68;;;1.50;;
50519;SDS011;36468;44.098;3.078;2023-05-10T05:30:20;9.20;;;1.63;;
50519;SDS011;36468;44.098;3.078;2023-05-10T05:32:46;10.38;;;1.90;;
50519;SDS011;36468;44.098;3.078;2023-05-10T05:35:12;12.82;;;1.77;;
50519;SDS011;36468;44.098;3.078;2023-05-10T05:37:38;13.25;;;1.83;;
50519;SDS011;36468;44.098;3.078;2023-05-10T05:40:05;8.82;;;1.55;;
50519;SDS011;36468;44.098;3.078;2023-05-10T05:42:31;12.13;;;1.60;;
50519;SDS011;36468;44.098;3.078;2023-05-10T05:44:57;16.52;;;1.85;;
50519;SDS011;36468;44.098;3.078;2023-05-10T05:47:24;14.90;;;2.22;;
50519;SDS011;36468;44.098;3.078;2023-05-10T05:49:50;8.95;;;1.67;;
50519;SDS011;36468;44.098;3.078;2023-05-10T05:52:16;11.98;;;1.73;;
50519;SDS011;36468;44.098;3.078;2023-05-10T05:54:42;9.98;;;2.00;;
50519;SDS011;36468;44.098;3.078;2023-05-10T05:57:08;10.65;;;1.67;;
50519;SDS011;36468;44.098;3.078;2023-05-10T05:59:35;12.15;;;2.10;;
50519;SDS011;36468;44.098;3.078;2023-05-10T06:02:01;12.82;;;2.00;;
50519;SDS011;36468;44.098;3.078;2023-05-10T06:04:27;12.43;;;2.00;;
50519;SDS011;36468;44.098;3.078;2023-05-10T06:06:53;12.10;;;2.08;;
50519;SDS011;36468;44.098;3.078;2023-05-10T06:09:19;16.25;;;1.80;;
50519;SDS011;36468;44.098;3.078;2023-05-10T06:11:45;11.77;;;2.00;;
50519;SDS011;36468;44.098;3.078;2023-05-10T06:14:11;10.40;;;2.05;;
50519;SDS011;36468;44.098;3.078;2023-05-10T06:16:37;9.10;;;1.67;;
50519;SDS011;36468;44.098;3.078;2023-05-10T06:19:03;8.32;;;1.92;;
50519;SDS011;36468;44.098;3.078;2023-05-10T06:21:29;9.43;;;1.58;;
50519;SDS011;36468;44.098;3.078;2023-05-10T06:23:55;10.45;;;2.15;;
50519;SDS011;36468;44.098;3.078;2023-05-10T06:26:21;7.72;;;1.70;;
50519;SDS011;36468;44.098;3.078;2023-05-10T06:28:47;8.85;;;2.00;;
50519;SDS011;36468;44.098;3.078;2023-05-10T06:31:13;6.38;;;1.70;;
50519;SDS011;36468;44.098;3.078;2023-05-10T06:33:40;9.48;;;2.25;;
50519;SDS011;36468;44.098;3.078;2023-05-10T06:36:07;10.00;;;2.20;;
50519;SDS011;36468;44.098;3.078;2023-05-10T06:38:33;9.82;;;2.20;;
50519;SDS011;36468;44.098;3.078;2023-05-10T06:40:59;10.85;;;2.20;;
50519;SDS011;36468;44.098;3.078;2023-05-10T06:43:25;8.18;;;1.63;;
50519;SDS011;36468;44.098;3.078;2023-05-10T06:45:53;6.72;;;1.42;;
50519;SDS011;36468;44.098;3.078;2023-05-10T06:48:19;10.25;;;1.90;;
50519;SDS011;36468;44.098;3.078;2023-05-10T06:50:45;8.18;;;1.67;;
50519;SDS011;36468;44.098;3.078;2023-05-10T06:53:11;12.13;;;1.80;;
50519;SDS011;36468;44.098;3.078;2023-05-10T06:55:38;9.63;;;1.65;;
50519;SDS011;36468;44.098;3.078;2023-05-10T06:58:04;10.52;;;1.73;;
50519;SDS011;36468;44.098;3.078;2023-05-10T07:00:31;8.73;;;1.60;;
50519;SDS011;36468;44.098;3.078;2023-05-10T07:02:57;15.55;;;2.05;;
50519;SDS011;36468;44.098;3.078;2023-05-10T07:05:23;10.48;;;2.10;;
50519;SDS011;36468;44.098;3.078;2023-05-10T07:07:49;12.18;;;1.95;;
50519;SDS011;36468;44.098;3.078;2023-05-10T07:10:16;14.50;;;2.42;;
50519;SDS011;36468;44.098;3.078;2023-05-10T07:12:42;10.93;;;1.75;;
50519;SDS011;36468;44.098;3.078;2023-05-10T07:15:08;10.57;;;2.28;;
50519;SDS011;36468;44.098;3.078;2023-05-10T07:17:35;10.77;;;2.03;;
50519;SDS011;36468;44.098;3.078;2023-05-10T07:20:01;13.02;;;2.97;;
50519;SDS011;36468;44.098;3.078;2023-05-10T07:22:28;10.48;;;2.75;;
50519;SDS011;36468;44.098;3.078;2023-05-10T07:24:54;16.73;;;2.97;;
50519;SDS011;36468;44.098;3.078;2023-05-10T07:27:21;9.68;;;2.17;;
50519;SDS011;36468;44.098;3.078;2023-05-10T07:29:47;8.35;;;1.52;;
50519;SDS011;36468;44.098;3.078;2023-05-10T07:32:13;9.68;;;2.35;;
50519;SDS011;36468;44.098;3.078;2023-05-10T07:34:39;9.95;;;2.33;;
50519;SDS011;36468;44.098;3.078;2023-05-10T07:37:05;13.43;;;2.55;;
50519;SDS011;36468;44.098;3.078;2023-05-10T07:39:32;13.60;;;2.50;;
50519;SDS011;36468;44.098;3.078;2023-05-10T07:41:58;12.85;;;2.35;;
50519;SDS011;36468;44.098;3.078;2023-05-10T07:44:24;12.32;;;2.55;;
50519;SDS011;36468;44.098;3.078;2023-05-10T07:46:50;9.95;;;2.28;;
50519;SDS011;36468;44.098;3.078;2023-05-10T07:49:17;11.02;;;2.00;;
50519;SDS011;36468;44.098;3.078;2023-05-10T07:51:43;13.30;;;1.88;;
50519;SDS011;36468;44.098;3.078;2023-05-10T07:54:09;13.38;;;2.15;;
50519;SDS011;36468;44.098;3.078;2023-05-10T07:56:35;13.80;;;2.03;;
50519;SDS011;36468;44.098;3.078;2023-05-10T07:59:02;12.55;;;1.95;;
50519;SDS011;36468;44.098;3.078;2023-05-10T08:01:32;16.55;;;1.98;;
50519;SDS011;36468;44.098;3.078;2023-05-10T08:03:58;12.88;;;1.83;;
50519;SDS011;36468;44.098;3.078;2023-05-10T08:06:24;11.23;;;1.88;;
50519;SDS011;36468;44.098;3.078;2023-05-10T08:08:54;9.52;;;1.73;;
50519;SDS011;36468;44.098;3.078;2023-05-10T08:11:21;11.73;;;2.10;;
50519;SDS011;36468;44.098;3.078;2023-05-10T08:13:47;9.30;;;1.65;;
50519;SDS011;36468;44.098;3.078;2023-05-10T08:16:14;9.23;;;1.95;;
50519;SDS011;36468;44.098;3.078;2023-05-10T08:18:40;11.85;;;1.88;;
50519;SDS011;36468;44.098;3.078;2023-05-10T08:21:06;10.98;;;1.73;;
50519;SDS011;36468;44.098;3.078;2023-05-10T08:23:33;10.38;;;1.73;;
50519;SDS011;36468;44.098;3.078;2023-05-10T08:25:59;10.98;;;1.95;;
50519;SDS011;36468;44.098;3.078;2023-05-10T08:28:25;8.90;;;1.63;;
50519;SDS011;36468;44.098;3.078;2023-05-10T08:30:52;8.55;;;1.77;;
50519;SDS011;36468;44.098;3.078;2023-05-10T08:33:18;9.48;;;1.73;;
50519;SDS011;36468;44.098;3.078;2023-05-10T08:35:44;6.75;;;1.70;;
50519;SDS011;36468;44.098;3.078;2023-05-10T08:38:10;5.95;;;1.30;;
50519;SDS011;36468;44.098;3.078;2023-05-10T08:40:37;8.25;;;1.80;;
50519;SDS011;36468;44.098;3.078;2023-05-10T08:43:09;8.68;;;1.35;;
50519;SDS011;36468;44.098;3.078;2023-05-10T08:45:37;7.43;;;1.55;;
50519;SDS011;36468;44.098;3.078;2023-05-10T08:48:05;6.65;;;1.73;;
50519;SDS011;36468;44.098;3.078;2023-05-10T08:50:31;6.70;;;1.80;;
50519;SDS011;36468;44.098;3.078;2023-05-10T08:52:57;7.97;;;1.80;;
50519;SDS011;36468;44.098;3.078;2023-05-10T08:55:25;8.50;;;1.83;;
50519;SDS011;36468;44.098;3.078;2023-05-10T08:57:51;9.50;;;1.83;;
50519;SDS011;36468;44.098;3.078;2023-05-10T09:00:17;9.93;;;1.80;;
50519;SDS011;36468;44.098;3.078;2023-05-10T09:02:44;8.00;;;2.25;;
50519;SDS011;36468;44.098;3.078;2023-05-10T09:05:13;6.72;;;1.67;;
50519;SDS011;36468;44.098;3.078;2023-05-10T09:07:41;8.20;;;1.70;;
50519;SDS011;36468;44.098;3.078;2023-05-10T09:10:07;10.73;;;2.83;;
50519;SDS011;36468;44.098;3.078;2023-05-10T09:12:34;5.70;;;1.67;;
50519;SDS011;36468;44.098;3.078;2023-05-10T09:15:00;7.90;;;1.75;;
50519;SDS011;36468;44.098;3.078;2023-05-10T09:17:27;11.50;;;2.03;;
50519;SDS011;36468;44.098;3.078;2023-05-10T09:20:01;6.72;;;1.70;;
50519;SDS011;36468;44.098;3.078;2023-05-10T09:22:27;8.30;;;1.83;;
50519;SDS011;36468;44.098;3.078;2023-05-10T09:25:09;8.70;;;1.90;;
50519;SDS011;36468;44.098;3.078;2023-05-10T09:27:36;8.77;;;1.80;;
50519;SDS011;36468;44.098;3.078;2023-05-10T09:30:03;6.45;;;1.40;;
50519;SDS011;36468;44.098;3.078;2023-05-10T09:32:46;10.57;;;1.85;;
50519;SDS011;36468;44.098;3.078;2023-05-10T09:35:16;7.75;;;1.63;;
50519;SDS011;36468;44.098;3.078;2023-05-10T09:37:44;4.72;;;1.50;;
50519;SDS011;36468;44.098;3.078;2023-05-10T09:40:11;6.45;;;1.60;;
50519;SDS011;36468;44.098;3.078;2023-05-10T09:42:38;5.43;;;1.77;;
50519;SDS011;36468;44.098;3.078;2023-05-10T09:45:04;6.47;;;1.60;;
50519;SDS011;36468;44.098;3.078;2023-05-10T09:47:34;8.75;;;1.90;;
50519;SDS011;36468;44.098;3.078;2023-05-10T09:50:00;6.85;;;1.70;;
50519;SDS011;36468;44.098;3.078;2023-05-10T09:55:14;7.20;;;2.20;;
50519;SDS011;36468;44.098;3.078;2023-05-10T09:57:40;8.35;;;2.20;;
50519;SDS011;36468;44.098;3.078;2023-05-10T10:00:06;6.85;;;1.58;;
50519;SDS011;36468;44.098;3.078;2023-05-10T10:02:32;9.40;;;1.90;;
50519;SDS011;36468;44.098;3.078;2023-05-10T10:05:01;10.98;;;2.20;;
50519;SDS011;36468;44.098;3.078;2023-05-10T10:07:28;6.60;;;1.70;;
50519;SDS011;36468;44.098;3.078;2023-05-10T10:09:54;8.63;;;1.88;;
50519;SDS011;36468;44.098;3.078;2023-05-10T10:12:20;6.28;;;1.73;;
50519;SDS011;36468;44.098;3.078;2023-05-10T10:14:47;6.43;;;1.58;;
50519;SDS011;36468;44.098;3.078;2023-05-10T10:17:15;9.52;;;2.17;;
50519;SDS011;36468;44.098;3.078;2023-05-10T10:19:41;8.85;;;1.70;;
50519;SDS011;36468;44.098;3.078;2023-05-10T10:22:07;8.27;;;2.38;;
50519;SDS011;36468;44.098;3.078;2023-05-10T10:24:35;6.40;;;1.77;;
50519;SDS011;36468;44.098;3.078;2023-05-10T10:27:04;8.65;;;1.80;;
50519;SDS011;36468;44.098;3.078;2023-05-10T10:29:39;6.57;;;1.65;;
50519;SDS011;36468;44.098;3.078;2023-05-10T10:32:22;9.48;;;2.08;;
50519;SDS011;36468;44.098;3.078;2023-05-10T10:34:50;6.43;;;2.00;;
50519;SDS011;36468;44.098;3.078;2023-05-10T10:37:17;10.00;;;1.92;;
50519;SDS011;36468;44.098;3.078;2023-05-10T10:39:43;6.55;;;1.70;;
50519;SDS011;36468;44.098;3.078;2023-05-10T10:42:09;7.55;;;1.90;;
50519;SDS011;36468;44.098;3.078;2023-05-10T10:44:36;7.80;;;1.80;;
50519;SDS011;36468;44.098;3.078;2023-05-10T10:57:31;6.45;;;2.78;;
50519;SDS011;36468;44.098;3.078;2023-05-10T11:07:56;5.88;;;1.80;;
50519;SDS011;36468;44.098;3.078;2023-05-10T11:10:22;5.57;;;1.60;;
50519;SDS011;36468;44.098;3.078;2023-05-10T11:13:01;5.68;;;1.83;;
50519;SDS011;36468;44.098;3.078;2023-05-10T11:15:38;5.88;;;1.50;;
50519;SDS011;36468;44.098;3.078;2023-05-10T11:18:20;7.55;;;1.42;;
50519;SDS011;36468;44.098;3.078;2023-05-10T11:20:50;7.03;;;1.45;;
50519;SDS011;36468;44.098;3.078;2023-05-10T11:23:17;4.07;;;1.23;;
50519;SDS011;36468;44.098;3.078;2023-05-10T11:25:45;8.35;;;1.48;;
50519;SDS011;36468;44.098;3.078;2023-05-10T11:28:12;8.20;;;3.22;;
50519;SDS011;36468;44.098;3.078;2023-05-10T11:30:38;4.78;;;1.55;;
50519;SDS011;36468;44.098;3.078;2023-05-10T11:33:05;7.10;;;1.77;;
50519;SDS011;36468;44.098;3.078;2023-05-10T11:35:36;6.50;;;1.38;;
50519;SDS011;36468;44.098;3.078;2023-05-10T11:38:04;6.38;;;1.70;;
50519;SDS011;36468;44.098;3.078;2023-05-10T11:40:30;5.53;;;1.60;;
50519;SDS011;36468;44.098;3.078;2023-05-10T11:42:56;7.68;;;1.50;;
50519;SDS011;36468;44.098;3.078;2023-05-10T11:45:25;6.25;;;1.60;;
50519;SDS011;36468;44.098;3.078;2023-05-10T11:47:53;6.38;;;1.55;;
50519;SDS011;36468;44.098;3.078;2023-05-10T11:50:19;8.35;;;1.70;;
50519;SDS011;36468;44.098;3.078;2023-05-10T11:52:49;5.85;;;1.58;;
50519;SDS011;36468;44.098;3.078;2023-05-10T11:55:16;5.03;;;1.50;;
50519;SDS011;36468;44.098;3.078;2023-05-10T11:57:42;5.63;;;1.40;;
50519;SDS011;36468;44.098;3.078;2023-05-10T12:00:10;4.38;;;1.02;;
50519;SDS011;36468;44.098;3.078;2023-05-10T12:02:37;4.57;;;1.10;;
50519;SDS011;36468;44.098;3.078;2023-05-10T12:05:03;7.93;;;1.30;;
50519;SDS011;36468;44.098;3.078;2023-05-10T12:07:30;3.83;;;1.10;;
50519;SDS011;36468;44.098;3.078;2023-05-10T12:10:06;6.32;;;1.60;;
50519;SDS011;36468;44.098;3.078;2023-05-10T12:12:36;6.90;;;1.65;;
50519;SDS011;36468;44.098;3.078;2023-05-10T12:15:03;6.20;;;1.67;;
50519;SDS011;36468;44.098;3.078;2023-05-10T12:17:29;5.47;;;1.35;;
50519;SDS011;36468;44.098;3.078;2023-05-10T12:19:58;7.70;;;1.50;;
50519;SDS011;36468;44.098;3.078;2023-05-10T12:22:25;7.38;;;1.80;;
50519;SDS011;36468;44.098;3.078;2023-05-10T12:24:51;6.65;;;1.80;;
50519;SDS011;36468;44.098;3.078;2023-05-10T12:27:17;6.50;;;1.63;;
50519;SDS011;36468;44.098;3.078;2023-05-10T12:29:43;8.73;;;1.42;;
50519;SDS011;36468;44.098;3.078;2023-05-10T12:32:09;7.35;;;1.70;;
50519;SDS011;36468;44.098;3.078;2023-05-10T12:34:35;6.45;;;1.48;;
50519;SDS011;36468;44.098;3.078;2023-05-10T12:37:03;5.93;;;1.70;;
50519;SDS011;36468;44.098;3.078;2023-05-10T12:39:42;8.27;;;2.75;;
50519;SDS011;36468;44.098;3.078;2023-05-10T12:42:08;7.03;;;3.05;;
50519;SDS011;36468;44.098;3.078;2023-05-10T12:44:34;8.15;;;3.05;;
50519;SDS011;36468;44.098;3.078;2023-05-10T12:47:00;5.95;;;2.10;;
50519;SDS011;36468;44.098;3.078;2023-05-10T12:49:26;4.78;;;1.90;;
50519;SDS011;36468;44.098;3.078;2023-05-10T12:51:52;3.40;;;1.20;;
50519;SDS011;36468;44.098;3.078;2023-05-10T12:54:18;1.58;;;0.70;;
50519;SDS011;36468;44.098;3.078;2023-05-10T12:56:45;2.42;;;0.68;;
50519;SDS011;36468;44.098;3.078;2023-05-10T12:59:11;3.63;;;1.50;;
50519;SDS011;36468;44.098;3.078;2023-05-10T13:01:37;3.08;;;0.90;;
50519;SDS011;36468;44.098;3.078;2023-05-10T13:04:03;4.60;;;0.80;;
50519;SDS011;36468;44.098;3.078;2023-05-10T13:06:29;3.83;;;1.02;;
50519;SDS011;36468;44.098;3.078;2023-05-10T13:08:55;7.88;;;1.00;;
50519;SDS011;36468;44.098;3.078;2023-05-10T13:11:22;3.00;;;0.95;;
50519;SDS011;36468;44.098;3.078;2023-05-10T13:13:48;3.03;;;0.82;;
50519;SDS011;36468;44.098;3.078;2023-05-10T13:16:14;4.88;;;1.20;;
50519;SDS011;36468;44.098;3.078;2023-05-10T13:18:40;5.47;;;1.08;;
50519;SDS011;36468;44.098;3.078;2023-05-10T13:21:06;3.50;;;1.10;;
50519;SDS011;36468;44.098;3.078;2023-05-10T13:23:33;5.85;;;0.80;;
50519;SDS011;36468;44.098;3.078;2023-05-10T13:25:59;3.38;;;0.88;;
50519;SDS011;36468;44.098;3.078;2023-05-10T13:28:25;4.28;;;0.90;;
50519;SDS011;36468;44.098;3.078;2023-05-10T13:30:51;4.85;;;0.85;;
50519;SDS011;36468;44.098;3.078;2023-05-10T13:33:17;5.28;;;0.82;;
50519;SDS011;36468;44.098;3.078;2023-05-10T13:35:43;5.28;;;0.95;;
50519;SDS011;36468;44.098;3.078;2023-05-10T13:38:10;7.70;;;1.40;;
50519;SDS011;36468;44.098;3.078;2023-05-10T13:40:36;5.45;;;0.95;;
50519;SDS011;36468;44.098;3.078;2023-05-10T13:43:02;3.83;;;0.95;;
50519;SDS011;36468;44.098;3.078;2023-05-10T13:45:28;6.38;;;1.20;;
50519;SDS011;36468;44.098;3.078;2023-05-10T13:47:54;1.85;;;0.80;;
50519;SDS011;36468;44.098;3.078;2023-05-10T13:50:20;9.82;;;1.52;;
50519;SDS011;36468;44.098;3.078;2023-05-10T13:52:47;4.13;;;1.02;;
50519;SDS011;36468;44.098;3.078;2023-05-10T13:55:13;4.07;;;1.42;;
50519;SDS011;36468;44.098;3.078;2023-05-10T13:57:39;7.30;;;1.27;;
50519;SDS011;36468;44.098;3.078;2023-05-10T14:00:06;7.88;;;1.52;;
50519;SDS011;36468;44.098;3.078;2023-05-10T14:02:32;7.88;;;1.38;;
50519;SDS011;36468;44.098;3.078;2023-05-10T14:04:58;6.05;;;0.90;;
50519;SDS011;36468;44.098;3.078;2023-05-10T14:07:25;2.03;;;0.70;;
50519;SDS011;36468;44.098;3.078;2023-05-10T14:09:51;2.95;;;0.90;;
50519;SDS011;36468;44.098;3.078;2023-05-10T14:12:17;4.28;;;0.77;;
50519;SDS011;36468;44.098;3.078;2023-05-10T14:14:43;2.38;;;0.52;;
50519;SDS011;36468;44.098;3.078;2023-05-10T14:17:10;2.17;;;0.63;;
50519;SDS011;36468;44.098;3.078;2023-05-10T14:19:36;3.65;;;0.70;;
50519;SDS011;36468;44.098;3.078;2023-05-10T14:22:02;6.10;;;0.93;;
50519;SDS011;36468;44.098;3.078;2023-05-10T14:24:28;5.55;;;0.93;;
50519;SDS011;36468;44.098;3.078;2023-05-10T14:26:54;5.32;;;1.17;;
50519;SDS011;36468;44.098;3.078;2023-05-10T14:29:20;4.15;;;0.95;;
50519;SDS011;36468;44.098;3.078;2023-05-10T14:31:46;5.20;;;1.08;;
50519;SDS011;36468;44.098;3.078;2023-05-10T14:34:13;3.88;;;1.05;;
50519;SDS011;36468;44.098;3.078;2023-05-10T14:36:39;3.88;;;1.00;;
50519;SDS011;36468;44.098;3.078;2023-05-10T14:39:05;5.35;;;1.50;;
50519;SDS011;36468;44.098;3.078;2023-05-10T14:41:31;6.05;;;1.13;;
50519;SDS011;36468;44.098;3.078;2023-05-10T14:43:57;5.10;;;1.13;;
50519;SDS011;36468;44.098;3.078;2023-05-10T14:46:24;5.25;;;1.30;;
50519;SDS011;36468;44.098;3.078;2023-05-10T14:48:50;5.72;;;1.33;;
50519;SDS011;36468;44.098;3.078;2023-05-10T14:51:16;7.00;;;1.58;;
50519;SDS011;36468;44.098;3.078;2023-05-10T14:53:43;3.83;;;0.93;;
50519;SDS011;36468;44.098;3.078;2023-05-10T14:56:09;7.28;;;1.27;;
50519;SDS011;36468;44.098;3.078;2023-05-10T14:58:35;5.68;;;1.55;;
50519;SDS011;36468;44.098;3.078;2023-05-10T15:01:02;3.80;;;1.10;;
50519;SDS011;36468;44.098;3.078;2023-05-10T15:03:28;3.80;;;1.10;;
50519;SDS011;36468;44.098;3.078;2023-05-10T15:05:54;6.28;;;1.17;;
50519;SDS011;36468;44.098;3.078;2023-05-10T15:08:22;4.15;;;1.05;;
50519;SDS011;36468;44.098;3.078;2023-05-10T15:10:49;3.08;;;0.80;;
50519;SDS011;36468;44.098;3.078;2023-05-10T15:13:16;4.20;;;1.08;;
50519;SDS011;36468;44.098;3.078;2023-05-10T15:15:42;2.30;;;0.73;;
50519;SDS011;36468;44.098;3.078;2023-05-10T15:18:08;3.63;;;0.90;;
50519;SDS011;36468;44.098;3.078;2023-05-10T15:20:34;3.35;;;0.88;;
50519;SDS011;36468;44.098;3.078;2023-05-10T15:23:01;5.07;;;1.17;;
50519;SDS011;36468;44.098;3.078;2023-05-10T15:25:27;4.32;;;1.00;;